Terminal Aerodrome Forecast
Issued by NWS Wilmington, NC

Home | Current Version | Previous Version | Text Only | Print | Product List | Glossary On
Versions: 1 2 3 4 5 6 7 8 9 10 11 12 13 14 15 16 17 18 19 20 21 22 23 24 25
000
FTUS42 KILM 221700
TAFILM
TAF
KILM 221721Z 2218/2318 01008KT P6SM VCSH SCT040 BKN100
     FM222300 03005KT P6SM BKN050 BKN100
     FM230900 03005KT 4SM -RA BKN012
     FM231400 03009KT P6SM VCSH SCT014 BKN100=

USA.gov is the U.S. government's official web portal to all federal, state and local government web resources and services.